Time;durP1;ratioP1;P1;durP2;ratioP2;P2;SDS_P1;SDS_P2;PMS_P1;PMS_P2;Temp;Humidity;BMP_temperature;BMP_pressure;BME280_temperature;BME280_humidity;BME280_pressure;Samples;Min_cycle;Max_cycle;Signal;HPM_P1;HPM_P2
2020/04/23 00:02:29;;;;;;;7.4;3.9;;;;;;;;;;;;;
2020/04/23 00:03:36;;;;;;;6.2;3.9;;;;;;;;;;;;;
2020/04/23 00:06:01;;;;;;;7.2;4;;;;;;;;;;;;;
2020/04/23 00:08:26;;;;;;;6;4.2;;;;;;;;;;;;;
2020/04/23 00:10:51;;;;;;;5.5;4;;;;;;;;;;;;;
2020/04/23 00:13:16;;;;;;;7.8;4.5;;;;;;;;;;;;;
2020/04/23 00:15:42;;;;;;;5.4;3.8;;;;;;;;;;;;;
2020/04/23 00:18:07;;;;;;;5.7;4.1;;;;;;;;;;;;;
2020/04/23 00:20:33;;;;;;;7.3;4.1;;;;;;;;;;;;;
2020/04/23 00:22:58;;;;;;;6.1;4.2;;;;;;;;;;;;;
2020/04/23 00:25:23;;;;;;;5.5;4.1;;;;;;;;;;;;;
2020/04/23 00:27:48;;;;;;;6;4.2;;;;;;;;;;;;;
2020/04/23 00:30:14;;;;;;;7.9;4.2;;;;;;;;;;;;;
2020/04/23 00:32:39;;;;;;;6.3;4.7;;;;;;;;;;;;;
2020/04/23 00:35:04;;;;;;;7.5;4.5;;;;;;;;;;;;;
2020/04/23 00:37:29;;;;;;;7.2;4.7;;;;;;;;;;;;;
2020/04/23 00:39:54;;;;;;;6.3;4.6;;;;;;;;;;;;;
2020/04/23 00:42:19;;;;;;;6.4;4.6;;;;;;;;;;;;;
2020/04/23 00:44:44;;;;;;;7.5;4.4;;;;;;;;;;;;;
2020/04/23 00:47:09;;;;;;;7.6;5;;;;;;;;;;;;;
2020/04/23 00:49:35;;;;;;;7.4;4.7;;;;;;;;;;;;;
2020/04/23 00:52:00;;;;;;;5.5;4.8;;;;;;;;;;;;;
2020/04/23 00:54:25;;;;;;;7.1;5;;;;;;;;;;;;;
2020/04/23 00:56:50;;;;;;;8.4;4.8;;;;;;;;;;;;;
2020/04/23 00:59:15;;;;;;;6.5;4.6;;;;;;;;;;;;;
2020/04/23 01:01:40;;;;;;;8;4.6;;;;;;;;;;;;;
2020/04/23 01:04:05;;;;;;;8.7;4.3;;;;;;;;;;;;;
2020/04/23 01:06:30;;;;;;;7.2;4.6;;;;;;;;;;;;;
2020/04/23 01:08:55;;;;;;;8.2;4.6;;;;;;;;;;;;;
2020/04/23 01:11:20;;;;;;;5.5;4.7;;;;;;;;;;;;;
2020/04/23 01:13:45;;;;;;;7;4.6;;;;;;;;;;;;;
2020/04/23 01:16:11;;;;;;;7;4.5;;;;;;;;;;;;;
2020/04/23 01:18:36;;;;;;;9.8;5;;;;;;;;;;;;;
2020/04/23 01:21:01;;;;;;;12;5.7;;;;;;;;;;;;;
2020/04/23 01:23:26;;;;;;;8;5.5;;;;;;;;;;;;;
2020/04/23 01:25:51;;;;;;;8.1;5.8;;;;;;;;;;;;;
2020/04/23 01:28:16;;;;;;;8.3;5.9;;;;;;;;;;;;;
2020/04/23 01:30:41;;;;;;;8;5.8;;;;;;;;;;;;;
2020/04/23 01:33:06;;;;;;;7.6;6.2;;;;;;;;;;;;;
2020/04/23 01:35:31;;;;;;;8.3;5.6;;;;;;;;;;;;;
2020/04/23 01:37:56;;;;;;;7;5.4;;;;;;;;;;;;;
2020/04/23 01:40:21;;;;;;;9.4;5.1;;;;;;;;;;;;;
2020/04/23 01:42:47;;;;;;;7;5.5;;;;;;;;;;;;;
2020/04/23 01:45:12;;;;;;;6.9;5.4;;;;;;;;;;;;;
2020/04/23 01:47:37;;;;;;;7.8;5.3;;;;;;;;;;;;;
2020/04/23 01:54:18;;;;;;;6.7;5.3;;;;;;;;;;;;;
2020/04/23 01:57:58;;;;;;;7.9;5.8;;;;;;;;;;;;;
2020/04/23 02:00:12;;;;;;;11.1;5.6;;;;;;;;;;;;;
2020/04/23 02:02:21;;;;;;;8.1;4.9;;;;;;;;;;;;;
2020/04/23 02:04:44;;;;;;;7.7;4.8;;;;;;;;;;;;;
2020/04/23 02:09:50;;;;;;;6.1;4.6;;;;;;;;;;;;;
2020/04/23 02:12:30;;;;;;;7.6;4.8;;;;;;;;;;;;;
2020/04/23 02:14:56;;;;;;;6.3;4.7;;;;;;;;;;;;;
2020/04/23 02:16:52;;;;;;;6.4;4.5;;;;;;;;;;;;;
2020/04/23 02:19:53;;;;;;;5.6;4.5;;;;;;;;;;;;;
2020/04/23 02:21:39;;;;;;;6.5;4.4;;;;;;;;;;;;;
2020/04/23 02:24:54;;;;;;;6.6;4.3;;;;;;;;;;;;;
2020/04/23 02:28:52;;;;;;;8.6;4.5;;;;;;;;;;;;;
2020/04/23 02:33:45;;;;;;;6;4.5;;;;;;;;;;;;;
2020/04/23 02:36:05;;;;;;;8.6;4.7;;;;;;;;;;;;;
2020/04/23 02:38:34;;;;;;;7.4;4.7;;;;;;;;;;;;;
2020/04/23 02:41:02;;;;;;;8.5;5.3;;;;;;;;;;;;;
2020/04/23 02:43:29;;;;;;;9.8;6.7;;;;;;;;;;;;;
2020/04/23 02:48:13;;;;;;;6.8;4.9;;;;;;;;;;;;;
2020/04/23 02:53:06;;;;;;;8.4;4.7;;;;;;;;;;;;;
2020/04/23 02:55:46;;;;;;;6.2;5;;;;;;;;;;;;;
2020/04/23 03:02:37;;;;;;;8.4;5.1;;;;;;;;;;;;;
2020/04/23 03:05:02;;;;;;;6.9;4.8;;;;;;;;;;;;;
2020/04/23 03:07:27;;;;;;;7.1;4.9;;;;;;;;;;;;;
2020/04/23 03:09:52;;;;;;;7.3;4.9;;;;;;;;;;;;;
2020/04/23 03:12:17;;;;;;;6.4;4.7;;;;;;;;;;;;;
2020/04/23 03:14:42;;;;;;;6.7;4.7;;;;;;;;;;;;;
2020/04/23 03:17:07;;;;;;;7;4.7;;;;;;;;;;;;;
2020/04/23 03:19:33;;;;;;;12.8;5;;;;;;;;;;;;;
2020/04/23 03:21:58;;;;;;;7.9;4.5;;;;;;;;;;;;;
2020/04/23 03:24:23;;;;;;;8.7;4.3;;;;;;;;;;;;;
2020/04/23 03:26:48;;;;;;;6.7;4.3;;;;;;;;;;;;;
2020/04/23 03:29:13;;;;;;;10.4;4.9;;;;;;;;;;;;;
2020/04/23 03:31:38;;;;;;;7.6;4.5;;;;;;;;;;;;;
2020/04/23 03:34:03;;;;;;;6.9;4.5;;;;;;;;;;;;;
2020/04/23 03:36:29;;;;;;;6.3;4.7;;;;;;;;;;;;;
2020/04/23 03:38:54;;;;;;;16;5.4;;;;;;;;;;;;;
2020/04/23 03:41:19;;;;;;;7.3;4.7;;;;;;;;;;;;;
2020/04/23 03:43:44;;;;;;;14.1;6;;;;;;;;;;;;;
2020/04/23 03:46:09;;;;;;;8.9;4.8;;;;;;;;;;;;;
2020/04/23 03:48:34;;;;;;;8.7;4.6;;;;;;;;;;;;;
2020/04/23 03:50:59;;;;;;;7.7;4.5;;;;;;;;;;;;;
2020/04/23 03:53:24;;;;;;;9;4.9;;;;;;;;;;;;;
2020/04/23 03:55:49;;;;;;;7.3;4.4;;;;;;;;;;;;;
2020/04/23 03:58:14;;;;;;;8.3;4.7;;;;;;;;;;;;;
2020/04/23 04:02:33;;;;;;;12.2;5.6;;;;;;;6.44;73.72656;938.6864;;;;
2020/04/23 04:04:58;;;;;;;6.4;4.8;;;;;;;6.39;73.77539;938.6708;;;;
2020/04/23 04:07:24;;;;;;;8.2;4.7;;;;;;;6.27;74.45508;938.6534;;;;
2020/04/23 04:09:49;;;;;;;9;4.9;;;;;;;6.23;74.69727;938.6136;;;;
2020/04/23 04:12:14;;;;;;;9.8;5.3;;;;;;;6.16;75.33887;938.6367;;;;
2020/04/23 04:14:39;;;;;;;13.3;5.3;;;;;;;6.14;75.55176;938.6575;;;;
2020/04/23 04:17:04;;;;;;;21.7;8.3;;;;;;;6.2;75.2334;938.6235;;;;
2020/04/23 04:19:29;;;;;;;14.3;7.5;;;;;;;6.28;74.91992;938.6606;;;;
2020/04/23 04:21:54;;;;;;;15.1;8.4;;;;;;;6.25;74.67773;938.6505;;;;
2020/04/23 04:24:20;;;;;;;25;9.1;;;;;;;6.24;74.70898;938.6462;;;;
2020/04/23 04:26:45;;;;;;;15.5;5.9;;;;;;;6.39;73.95508;938.6731;;;;
2020/04/23 04:29:10;;;;;;;15;6.2;;;;;;;6.39;73.63965;938.6866;;;;
2020/04/23 04:31:35;;;;;;;11.4;5.9;;;;;;;6.31;74.09961;938.7003;;;;
2020/04/23 04:34:00;;;;;;;11.3;4.7;;;;;;;6.33;73.80859;938.6825;;;;
2020/04/23 04:36:26;;;;;;;11.8;5.3;;;;;;;6.16;74.27734;938.5862;;;;
2020/04/23 04:38:51;;;;;;;10.1;5;;;;;;;6.07;74.74805;938.7159;;;;
2020/04/23 04:41:16;;;;;;;15.9;7.3;;;;;;;6.02;75.11133;938.7609;;;;
2020/04/23 04:43:41;;;;;;;29.3;14.4;;;;;;;6.06;75.07422;938.7567;;;;
2020/04/23 04:46:06;;;;;;;24.7;11.3;;;;;;;6.16;74.67188;938.7521;;;;
2020/04/23 04:48:31;;;;;;;14.9;8.2;;;;;;;6.2;74.65723;938.8134;;;;
2020/04/23 04:50:56;;;;;;;12.7;6.6;;;;;;;6.23;74.86523;938.7916;;;;
2020/04/23 04:53:22;;;;;;;16.2;6.7;;;;;;;6.34;74.52246;938.8417;;;;
2020/04/23 04:55:47;;;;;;;9.6;5.3;;;;;;;6.46;73.82031;938.9362;;;;
2020/04/23 04:58:12;;;;;;;8.6;4.9;;;;;;;6.5;73.46484;938.9118;;;;
2020/04/23 05:00:38;;;;;;;10.2;4.9;;;;;;;6.59;73.14063;938.9709;;;;
2020/04/23 05:03:03;;;;;;;10.6;5.1;;;;;;;6.54;73.5498;938.9769;;;;
2020/04/23 05:05:28;;;;;;;8;5;;;;;;;6.5;73.73633;938.9647;;;;
2020/04/23 05:07:53;;;;;;;9.2;5;;;;;;;6.52;74.15918;939.0366;;;;
2020/04/23 05:10:18;;;;;;;9.4;5.6;;;;;;;6.51;74.33887;939.0593;;;;
2020/04/23 05:12:44;;;;;;;11.2;5.4;;;;;;;6.52;72.4502;939.0325;;;;
2020/04/23 05:15:10;;;;;;;11.3;5.6;;;;;;;6.47;72.62305;939.1451;;;;
2020/04/23 05:17:35;;;;;;;13.9;6.4;;;;;;;6.41;73.41504;939.1033;;;;
2020/04/23 05:20:00;;;;;;;10.9;6.8;;;;;;;6.27;73.5957;939.1767;;;;
2020/04/23 05:22:25;;;;;;;17.1;6.2;;;;;;;6.22;73.27148;939.0995;;;;
2020/04/23 05:24:50;;;;;;;13.3;6.6;;;;;;;6.25;73.85254;939.2222;;;;
2020/04/23 05:27:15;;;;;;;12.5;6.5;;;;;;;6.15;75.02246;939.2152;;;;
2020/04/23 05:29:40;;;;;;;13.5;6.8;;;;;;;6.25;75.79688;939.1842;;;;
2020/04/23 05:32:05;;;;;;;11.6;5.3;;;;;;;7.6;72.03223;939.1348;;;;
2020/04/23 05:34:30;;;;;;;14;4.8;;;;;;;9.93;62.87988;939.1824;;;;
2020/04/23 05:36:56;;;;;;;10.5;4.6;;;;;;;11.06;58.3916;939.2224;;;;
2020/04/23 05:39:21;;;;;;;10.7;4.4;;;;;;;12.32;54.46777;939.1561;;;;
2020/04/23 05:41:46;;;;;;;12.1;4.1;;;;;;;14.12;49.33105;939.2058;;;;
2020/04/23 05:44:13;;;;;;;7.1;4;;;;;;;15.22;46.8457;939.217;;;;
2020/04/23 05:46:38;;;;;;;9.4;4.2;;;;;;;16.32;43.97852;939.1863;;;;
2020/04/23 05:54:21;;;;;;;9.8;3.7;;;;;;;18.64;37.34863;939.1682;;;;
2020/04/23 05:56:28;;;;;;;10.1;3.8;;;;;;;19.01;37.07813;939.1866;;;;
2020/04/23 06:06:25;;;;;;;10;3.6;;;;;;;19.84;35.30371;939.1716;;;;
2020/04/23 06:11:13;;;;;;;7;3.4;;;;;;;19.97;35.61816;939.1715;;;;
2020/04/23 06:13:44;;;;;;;7.8;3.3;;;;;;;18.9;37.91797;939.2187;;;;
2020/04/23 06:15:51;;;;;;;8;3.5;;;;;;;19.54;36.3418;939.1677;;;;
2020/04/23 06:23:17;;;;;;;7.8;3.4;;;;;;;21.31;32.42578;939.1602;;;;
2020/04/23 06:25:36;;;;;;;8.9;3.1;;;;;;;22.1;30.80762;939.133;;;;
2020/04/23 06:28:07;;;;;;;6.4;3.3;;;;;;;22.55;31.10938;939.0938;;;;
2020/04/23 06:35:16;;;;;;;3.7;2.6;;;;;;;22.63;29.58789;939.1003;;;;
2020/04/23 06:37:36;;;;;;;6.9;3.3;;;;;;;23.14;29.02344;939.0594;;;;
2020/04/23 06:42:51;;;;;;;6;3.1;;;;;;;23.05;29.98145;939.1205;;;;
2020/04/23 06:45:01;;;;;;;5;3;;;;;;;23.2;29.48535;939.1295;;;;
2020/04/23 06:47:40;;;;;;;7;3.2;;;;;;;24.5;27.30859;939.0803;;;;
2020/04/23 06:49:50;;;;;;;5.4;2.9;;;;;;;23.96;29.24121;939.0767;;;;
2020/04/23 06:52:16;;;;;;;8.7;3;;;;;;;24.32;27.54492;939.0374;;;;
2020/04/23 06:57:24;;;;;;;7;3.1;;;;;;;24.02;28.11523;939.0472;;;;
2020/04/23 06:59:54;;;;;;;5.5;3.3;;;;;;;24.08;27.93066;939.0273;;;;
2020/04/23 07:02:10;;;;;;;7;3.3;;;;;;;23.81;28.2793;939.0359;;;;
2020/04/23 07:04:43;;;;;;;10.8;3.7;;;;;;;23.69;29.37695;939.0051;;;;
2020/04/23 07:07:27;;;;;;;7.5;3.6;;;;;;;24.02;27.78613;939.0661;;;;
2020/04/23 07:12:17;;;;;;;7.7;3.7;;;;;;;24.25;27.03418;939.0489;;;;
2020/04/23 07:14:41;;;;;;;10;3.7;;;;;;;24.21;27.0791;939.0446;;;;
2020/04/23 07:17:21;;;;;;;6.5;3.8;;;;;;;24.48;26.56445;939.0886;;;;
2020/04/23 07:20:11;;;;;;;7;3.7;;;;;;;24.45;26.7041;939.0176;;;;
2020/04/23 07:22:16;;;;;;;7.1;3.4;;;;;;;24.65;26.65723;939.0865;;;;
2020/04/23 07:25:25;;;;;;;9;3.6;;;;;;;25.21;25.86426;939.0363;;;;
2020/04/23 07:27:16;;;;;;;7.8;3.5;;;;;;;25.84;24.57715;939.019;;;;
2020/04/23 07:29:44;;;;;;;4.5;3.2;;;;;;;25.69;24.78125;939.0226;;;;
2020/04/23 07:34:35;;;;;;;8;3.4;;;;;;;26.87;23.21191;939.0506;;;;
2020/04/23 07:36:55;;;;;;;6.2;3.2;;;;;;;27.61;22.87012;939.024;;;;
2020/04/23 07:39:22;;;;;;;5.9;3.2;;;;;;;27.85;21.84961;939.009;;;;
2020/04/23 07:44:17;;;;;;;6;3.2;;;;;;;28.28;21.47754;939.0477;;;;
2020/04/23 07:46:46;;;;;;;4.6;3.2;;;;;;;28.79;20.99023;939.002;;;;
2020/04/23 07:49:14;;;;;;;6.4;2.9;;;;;;;29.33;20.86133;938.9892;;;;
2020/04/23 07:51:43;;;;;;;4.5;3.1;;;;;;;29.6;20.88477;939.0007;;;;
2020/04/23 07:58:23;;;;;;;4.1;2.8;;;;;;;29.75;20.35547;939.0201;;;;
2020/04/23 08:00:14;;;;;;;4.7;3.1;;;;;;;29.31;20.34766;938.9861;;;;
2020/04/23 08:04:23;;;;;;;5.3;3.1;;;;;;;29.06;20.63379;938.9889;;;;
2020/04/23 08:06:46;;;;;;;6.2;3.1;;;;;;;29.42;20.7334;938.9221;;;;
2020/04/23 08:09:10;;;;;;;8.2;3.2;;;;;;;30.08;20.95508;938.9382;;;;
2020/04/23 08:11:38;;;;;;;6.5;3.2;;;;;;;30.26;20.80859;938.9238;;;;
2020/04/23 08:21:43;;;;;;;4.7;3.2;;;;;;;30.98;20.50684;938.8395;;;;
2020/04/23 08:24:12;;;;;;;5.9;3.3;;;;;;;31.63;19.11133;938.8527;;;;
2020/04/23 08:31:45;;;;;;;5.7;3.1;;;;;;;30.45;20.66211;938.802;;;;
2020/04/23 08:34:03;;;;;;;6.1;3;;;;;;;31.03;19.27734;938.8422;;;;
2020/04/23 08:36:47;;;;;;;4.9;3;;;;;;;30.89;19.83301;938.81;;;;
2020/04/23 08:39:13;;;;;;;5;2.8;;;;;;;30.26;20.99902;938.7759;;;;
2020/04/23 08:41:26;;;;;;;5;2.9;;;;;;;30.19;20.45898;938.7803;;;;
2020/04/23 08:48:55;;;;;;;5.6;2.9;;;;;;;31.58;19.2041;938.8676;;;;
2020/04/23 08:51:17;;;;;;;7.2;3;;;;;;;31.54;19.92188;938.8971;;;;
2020/04/23 08:55:02;;;;;;;5.3;2.8;;;;;;;30.8;20.82129;938.8894;;;;
2020/04/23 08:56:14;;;;;;;6.1;2.9;;;;;;;28.86;23.0293;938.896;;;;
2020/04/23 08:58:40;;;;;;;21.4;3.1;;;;;;;28.67;22.0791;938.8688;;;;
2020/04/23 09:01:10;;;;;;;4.8;2.8;;;;;;;28.65;23.01855;938.8752;;;;
2020/04/23 09:08:46;;;;;;;3.3;2.4;;;;;;;28.43;23.01855;938.7788;;;;
2020/04/23 09:11:11;;;;;;;5;2.7;;;;;;;28.1;24.20215;938.7815;;;;
2020/04/23 09:13:40;;;;;;;5.8;2.7;;;;;;;27.4;25.43359;938.8174;;;;
2020/04/23 09:18:29;;;;;;;5.7;3.4;;;;;;;26.32;26.10645;938.7852;;;;
2020/04/23 09:23:25;;;;;;;7.6;2.8;;;;;;;25.18;28.02344;938.7389;;;;
2020/04/23 09:25:44;;;;;;;6.9;3;;;;;;;24.96;28.50488;938.6998;;;;
2020/04/23 09:29:06;;;;;;;7.2;3;;;;;;;25.32;28.38574;938.6489;;;;
2020/04/23 09:30:57;;;;;;;5.7;3.2;;;;;;;25.45;28.09863;938.6064;;;;
2020/04/23 09:36:42;;;;;;;8.6;2.9;;;;;;;25.52;29.04785;938.6358;;;;
2020/04/23 09:38:12;;;;;;;7.8;3.3;;;;;;;25.48;27.56934;938.601;;;;
2020/04/23 09:40:51;;;;;;;6.8;3.1;;;;;;;25.15;28.33984;938.6387;;;;
2020/04/23 09:43:39;;;;;;;7.1;3.2;;;;;;;25.22;29.13574;938.6287;;;;
2020/04/23 09:45:52;;;;;;;7.4;3.3;;;;;;;24.92;28.78516;938.6105;;;;
2020/04/23 09:53:31;;;;;;;5.6;3.8;;;;;;;24.6;31.09863;938.5655;;;;
2020/04/23 09:55:54;;;;;;;7;3.5;;;;;;;24.31;31.44434;938.5446;;;;
2020/04/23 09:58:29;;;;;;;8.4;3.6;;;;;;;24.58;29.9541;938.4775;;;;
2020/04/23 10:01:43;;;;;;;5.5;3.5;;;;;;;24.14;30.73633;938.4576;;;;
2020/04/23 10:05:43;;;;;;;6.6;3.4;;;;;;;24.43;30.10938;938.3402;;;;
2020/04/23 10:08:28;;;;;;;6.6;3.3;;;;;;;24.37;30.50586;938.2244;;;;
2020/04/23 10:10:39;;;;;;;11.9;3.4;;;;;;;24.44;30.36914;938.2729;;;;
2020/04/23 10:15:35;;;;;;;5.1;3.3;;;;;;;24.66;29.65332;938.2461;;;;
2020/04/23 10:19:43;;;;;;;7.2;3.2;;;;;;;24.8;30.42871;938.289;;;;
2020/04/23 10:20:43;;;;;;;7.9;3.2;;;;;;;25.13;30.25;938.1931;;;;
2020/04/23 10:23:17;;;;;;;7.1;3.5;;;;;;;25.17;28.99121;938.1378;;;;
2020/04/23 10:35:21;;;;;;;6.1;3.2;;;;;;;25.16;29.93359;938.1021;;;;
2020/04/23 10:39:37;;;;;;;10.3;3.4;;;;;;;25;31.375;938.1524;;;;
2020/04/23 10:40:33;;;;;;;8;3.1;;;;;;;24.99;28.78906;938.1362;;;;
2020/04/23 10:45:38;;;;;;;4.8;3.6;;;;;;;24.5;30.77441;938.1408;;;;
2020/04/23 10:51:00;;;;;;;7.2;3.7;;;;;;;24.85;29.54688;938.0319;;;;
2020/04/23 10:52:50;;;;;;;7.6;3.6;;;;;;;24.85;30.125;938.0524;;;;
2020/04/23 10:55:32;;;;;;;10.6;3.7;;;;;;;24.79;31.04199;937.9774;;;;
2020/04/23 10:57:58;;;;;;;7.3;3.2;;;;;;;24.83;31.35059;938.0312;;;;
2020/04/23 11:00:15;;;;;;;5.3;3.7;;;;;;;24.71;31.1543;938.0192;;;;
2020/04/23 11:05:08;;;;;;;5.6;3.7;;;;;;;24.68;30.8457;937.9683;;;;
2020/04/23 11:07:34;;;;;;;6.2;3.6;;;;;;;24.85;31.54102;938.0081;;;;
2020/04/23 11:09:59;;;;;;;7;3.7;;;;;;;25.26;29.71582;937.9272;;;;
2020/04/23 11:12:24;;;;;;;8.4;3.5;;;;;;;25.28;30.88672;937.9472;;;;
2020/04/23 11:14:53;;;;;;;6;3.4;;;;;;;25.13;30.80469;937.8702;;;;
2020/04/23 11:17:18;;;;;;;9;3.7;;;;;;;24.99;30.64258;937.9083;;;;
2020/04/23 11:19:52;;;;;;;7.5;3.7;;;;;;;25.04;30.69238;937.9041;;;;
2020/04/23 11:22:17;;;;;;;6.7;3.6;;;;;;;24.6;30.08496;937.9922;;;;
2020/04/23 11:24:42;;;;;;;7.7;3.8;;;;;;;24.72;31.56738;937.9902;;;;
2020/04/23 11:27:09;;;;;;;10.3;3.8;;;;;;;24.32;31.70313;937.9883;;;;
2020/04/23 11:29:35;;;;;;;8.1;3.7;;;;;;;24.56;30.9668;937.9367;;;;
2020/04/23 11:32:07;;;;;;;10;4;;;;;;;25.26;29.88086;938.0273;;;;
2020/04/23 11:34:39;;;;;;;8.3;3.8;;;;;;;25.39;28.94629;937.8994;;;;
2020/04/23 11:37:05;;;;;;;7.5;3.7;;;;;;;25.34;30.08789;937.9338;;;;
2020/04/23 11:39:37;;;;;;;6.6;3.7;;;;;;;25.48;29.06934;937.871;;;;
2020/04/23 11:42:02;;;;;;;7.9;3.8;;;;;;;25.42;29.62109;937.889;;;;
2020/04/23 11:44:28;;;;;;;9.5;3.7;;;;;;;25.59;30.4707;937.8436;;;;
2020/04/23 11:46:55;;;;;;;6.3;3.9;;;;;;;24.84;30.77441;937.9425;;;;
2020/04/23 11:49:21;;;;;;;10.7;4;;;;;;;24.95;31.35938;937.8928;;;;
2020/04/23 11:51:46;;;;;;;8.4;4.1;;;;;;;24.31;32.11523;937.8049;;;;
2020/04/23 11:54:15;;;;;;;8.2;3.9;;;;;;;25.07;31.61523;937.861;;;;
2020/04/23 11:56:40;;;;;;;13.5;4.2;;;;;;;25.67;28.65625;937.7805;;;;
2020/04/23 11:59:06;;;;;;;5.9;3.8;;;;;;;25.76;28.28418;937.8356;;;;
2020/04/23 12:01:31;;;;;;;12.7;4;;;;;;;26.25;28.01855;937.8744;;;;
2020/04/23 12:03:56;;;;;;;7.1;3.8;;;;;;;26.33;29.82324;937.8367;;;;
2020/04/23 12:06:25;;;;;;;7.2;3.3;;;;;;;26.19;29.15137;937.8298;;;;
2020/04/23 12:08:50;;;;;;;11;4.4;;;;;;;25.54;30.4082;937.8314;;;;
2020/04/23 12:11:18;;;;;;;5.1;3.7;;;;;;;25.81;28.87793;937.7974;;;;
2020/04/23 12:13:46;;;;;;;5.7;3.6;;;;;;;26.03;29.66113;937.8445;;;;
2020/04/23 12:16:13;;;;;;;8.7;3.9;;;;;;;26.01;29.18652;937.7753;;;;
2020/04/23 12:18:39;;;;;;;8.3;4.2;;;;;;;25.71;29.5459;937.7478;;;;
2020/04/23 12:21:04;;;;;;;7.2;3.6;;;;;;;26.09;29.01465;937.8106;;;;
2020/04/23 12:23:29;;;;;;;6.6;3.6;;;;;;;25.8;29.52734;937.762;;;;
2020/04/23 12:25:55;;;;;;;7.3;4.2;;;;;;;25.71;29.95898;937.8186;;;;
2020/04/23 12:28:20;;;;;;;6.7;4;;;;;;;25.41;28.80566;937.6163;;;;
2020/04/23 12:30:45;;;;;;;9.4;4;;;;;;;25.04;30.74023;937.6747;;;;
2020/04/23 12:33:19;;;;;;;8.1;4;;;;;;;24.43;33.57324;937.6481;;;;
2020/04/23 12:35:46;;;;;;;7.3;4.1;;;;;;;24.12;31.7959;937.5851;;;;
2020/04/23 12:38:11;;;;;;;7.4;4.1;;;;;;;23.83;34.01074;937.579;;;;
2020/04/23 12:40:37;;;;;;;7.7;4.4;;;;;;;23.33;34.29004;937.5939;;;;
2020/04/23 12:43:04;;;;;;;8.2;4.1;;;;;;;23.5;32.58691;937.6074;;;;
2020/04/23 12:45:32;;;;;;;6.2;4;;;;;;;23.46;35.5;937.6278;;;;
2020/04/23 12:48:01;;;;;;;9.3;4.3;;;;;;;23.31;34.75879;937.5217;;;;
2020/04/23 12:50:27;;;;;;;6.3;4.4;;;;;;;23.21;33.84668;937.4978;;;;
2020/04/23 12:52:58;;;;;;;10;4.5;;;;;;;22.58;34.4668;937.57;;;;
2020/04/23 12:55:26;;;;;;;11;5.1;;;;;;;22.5;34.90723;937.5031;;;;
2020/04/23 12:57:56;;;;;;;14.1;5.3;;;;;;;22.1;36.62207;937.4964;;;;
2020/04/23 13:00:29;;;;;;;10.3;4.8;;;;;;;21.8;37.46387;937.469;;;;
2020/04/23 13:02:57;;;;;;;10.6;5.2;;;;;;;21.6;37.42383;937.4894;;;;
2020/04/23 13:05:22;;;;;;;7.6;4.9;;;;;;;21.59;38.42969;937.4176;;;;
2020/04/23 13:07:47;;;;;;;7.4;4.7;;;;;;;21.61;37.21484;937.2541;;;;
2020/04/23 13:10:14;;;;;;;10.7;4.9;;;;;;;21.76;37.47363;937.3479;;;;
2020/04/23 13:12:39;;;;;;;8.3;4.8;;;;;;;21.6;37.01367;937.4359;;;;
2020/04/23 13:15:04;;;;;;;7.6;4.9;;;;;;;21.8;36.08105;937.3985;;;;
2020/04/23 13:17:29;;;;;;;11.2;5.1;;;;;;;21.62;37.70605;937.4222;;;;
2020/04/23 13:20:03;;;;;;;10.3;4.7;;;;;;;21.54;38.87109;937.3989;;;;
2020/04/23 13:22:30;;;;;;;11.2;5;;;;;;;21.81;36.23633;937.4392;;;;
2020/04/23 13:24:59;;;;;;;9.5;4.9;;;;;;;21.94;36.90234;937.4092;;;;
2020/04/23 13:27:25;;;;;;;9.4;5.3;;;;;;;21.79;37.87402;937.3728;;;;
2020/04/23 13:29:50;;;;;;;7.9;4.9;;;;;;;21.79;37.03027;937.3403;;;;
2020/04/23 13:32:16;;;;;;;11.1;5.4;;;;;;;21.54;37.50098;937.3494;;;;
2020/04/23 13:34:41;;;;;;;8.7;5.2;;;;;;;21.7;36.05078;937.3483;;;;
2020/04/23 13:37:06;;;;;;;9.5;5.4;;;;;;;21.94;36.16406;937.3192;;;;
2020/04/23 13:39:31;;;;;;;7.7;5.3;;;;;;;22.12;34.77148;937.3864;;;;
2020/04/23 13:42:00;;;;;;;9.1;5.2;;;;;;;22.11;34.60645;937.2999;;;;
2020/04/23 13:44:30;;;;;;;9.3;5.1;;;;;;;22.07;35.40137;937.3117;;;;
2020/04/23 13:47:02;;;;;;;10.7;5.5;;;;;;;22.19;34.46094;937.317;;;;
2020/04/23 13:49:35;;;;;;;9.2;4.9;;;;;;;22.2;35.92676;937.2932;;;;
2020/04/23 13:52:06;;;;;;;8.8;4.7;;;;;;;22.36;35.01367;937.3337;;;;
2020/04/23 13:54:33;;;;;;;9.7;4.8;;;;;;;22.25;36.21289;937.2844;;;;
2020/04/23 13:57:03;;;;;;;7.3;4.8;;;;;;;22.22;34.5918;937.265;;;;
2020/04/23 13:59:37;;;;;;;10.7;5.5;;;;;;;22.04;35.1875;937.2242;;;;
2020/04/23 14:02:08;;;;;;;9.2;5.2;;;;;;;21.96;35.58008;937.303;;;;
2020/04/23 14:04:40;;;;;;;7.3;5.1;;;;;;;21.52;35.18164;937.3397;;;;
2020/04/23 14:07:14;;;;;;;9.2;5.3;;;;;;;21.11;37.28906;937.3745;;;;
2020/04/23 14:09:48;;;;;;;6.9;5;;;;;;;21.02;36.07715;937.3762;;;;
2020/04/23 14:12:19;;;;;;;7.2;4.8;;;;;;;20.89;37.94922;937.2566;;;;
2020/04/23 14:14:44;;;;;;;8.3;5.2;;;;;;;20.74;38.67285;937.2536;;;;
2020/04/23 14:17:15;;;;;;;9;5;;;;;;;20.75;37.57422;937.1926;;;;
2020/04/23 14:19:48;;;;;;;9.2;5.8;;;;;;;20.19;38.88086;937.253;;;;
2020/04/23 14:22:13;;;;;;;10.9;5.5;;;;;;;20.28;37.76855;937.2723;;;;
2020/04/23 14:24:40;;;;;;;10.3;5.4;;;;;;;20.27;38.67773;937.2023;;;;
2020/04/23 14:27:05;;;;;;;15;5.6;;;;;;;20.44;37.94531;937.13;;;;
2020/04/23 14:29:30;;;;;;;7.7;5;;;;;;;20.55;37.55762;937.1469;;;;
2020/04/23 14:32:02;;;;;;;8.6;5.1;;;;;;;20.51;37.76465;937.2159;;;;
2020/04/23 14:34:27;;;;;;;7.2;5;;;;;;;20.42;37.84961;937.1919;;;;
2020/04/23 14:36:55;;;;;;;9;5.1;;;;;;;20.13;38.33789;937.199;;;;
2020/04/23 14:39:27;;;;;;;9.5;5.4;;;;;;;19.72;39.30566;937.2084;;;;
2020/04/23 14:41:56;;;;;;;6.7;5.4;;;;;;;19.73;39.01465;937.188;;;;
2020/04/23 14:44:22;;;;;;;9.2;4.9;;;;;;;19.97;39.04785;937.2543;;;;
2020/04/23 14:46:55;;;;;;;8.5;4.9;;;;;;;20.31;38.16797;937.151;;;;
2020/04/23 14:49:25;;;;;;;7.6;4.8;;;;;;;20.29;39.42676;937.1033;;;;
2020/04/23 14:51:53;;;;;;;7.5;5.2;;;;;;;20.49;37.09668;937.1251;;;;
2020/04/23 14:54:19;;;;;;;8;4.8;;;;;;;20.56;37.60547;937.0551;;;;
2020/04/23 14:56:51;;;;;;;8.3;4.8;;;;;;;20.49;37.99609;936.9739;;;;
2020/04/23 14:59:16;;;;;;;9.4;5;;;;;;;20.48;37.68066;937.1328;;;;
2020/04/23 15:01:41;;;;;;;6.5;4.6;;;;;;;20.41;37.46387;937.0861;;;;
2020/04/23 15:04:06;;;;;;;8.1;5.3;;;;;;;20.28;39.12207;937.0073;;;;
2020/04/23 15:06:33;;;;;;;11.2;5.2;;;;;;;20.04;39.12402;937.0457;;;;
2020/04/23 15:09:02;;;;;;;9.6;4.8;;;;;;;20.16;38.66797;937.0355;;;;
2020/04/23 15:11:28;;;;;;;11.8;4.4;;;;;;;20.36;37.60059;937.0072;;;;
2020/04/23 15:13:54;;;;;;;9.8;5;;;;;;;20.37;39.03613;936.9925;;;;
2020/04/23 15:16:19;;;;;;;8;4.7;;;;;;;20.26;38.1875;936.9964;;;;
2020/04/23 15:18:44;;;;;;;7;4.8;;;;;;;20.08;38.01953;937.0033;;;;
2020/04/23 15:21:10;;;;;;;7.8;4.8;;;;;;;20.05;38.35547;936.9297;;;;
2020/04/23 15:23:35;;;;;;;8.9;4.8;;;;;;;20.17;38.87891;936.8371;;;;
2020/04/23 15:26:00;;;;;;;6.3;4.6;;;;;;;20.24;37.11133;936.9623;;;;
2020/04/23 15:28:34;;;;;;;8.6;4.6;;;;;;;20.23;37.91504;936.916;;;;
2020/04/23 15:31:08;;;;;;;7.8;4.9;;;;;;;19.92;37.83008;936.9171;;;;
2020/04/23 15:33:38;;;;;;;8.7;5;;;;;;;20.06;38.27441;936.8558;;;;
2020/04/23 15:36:07;;;;;;;9.2;4.7;;;;;;;20.03;39.74219;936.8719;;;;
2020/04/23 15:38:38;;;;;;;9.3;4.5;;;;;;;20.09;37.53027;936.8663;;;;
2020/04/23 15:41:03;;;;;;;9.5;4.7;;;;;;;19.98;37.54395;936.9291;;;;
2020/04/23 15:43:36;;;;;;;11.9;4.9;;;;;;;20.16;36.4502;936.9426;;;;
2020/04/23 15:46:06;;;;;;;7.5;4.6;;;;;;;20.08;37.58789;936.8521;;;;
2020/04/23 15:48:31;;;;;;;7.9;4.6;;;;;;;20.07;37.36523;936.8586;;;;
2020/04/23 15:50:56;;;;;;;8.4;4.7;;;;;;;20.06;36.71094;936.8317;;;;
2020/04/23 15:53:21;;;;;;;11;4.7;;;;;;;20;37.41699;936.7918;;;;
2020/04/23 15:55:46;;;;;;;7;4.3;;;;;;;20.05;37.2002;936.8269;;;;
2020/04/23 15:58:11;;;;;;;7.3;4.6;;;;;;;20.05;36.58203;936.8309;;;;
2020/04/23 16:00:38;;;;;;;6.3;4.2;;;;;;;20;36.79883;936.7773;;;;
2020/04/23 16:03:03;;;;;;;7.5;4.4;;;;;;;20.03;36.38184;936.8016;;;;
2020/04/23 16:05:29;;;;;;;8.3;4.4;;;;;;;19.94;37.97168;936.7823;;;;
2020/04/23 16:07:57;;;;;;;8.6;4.5;;;;;;;20;37.51172;936.7916;;;;
2020/04/23 16:10:26;;;;;;;7;4.7;;;;;;;19.9;37.29297;936.7267;;;;
2020/04/23 16:12:57;;;;;;;7.4;4.4;;;;;;;20.02;36.60254;936.7631;;;;
2020/04/23 16:15:32;;;;;;;9;4.7;;;;;;;20.12;36.57617;936.8694;;;;
2020/04/23 16:17:59;;;;;;;9.8;4.5;;;;;;;20.15;37.3252;936.8337;;;;
2020/04/23 16:20:26;;;;;;;9.6;4.8;;;;;;;20.2;36.17383;936.8395;;;;
2020/04/23 16:22:51;;;;;;;10.3;4.4;;;;;;;20;36.62402;936.8784;;;;
2020/04/23 16:25:23;;;;;;;6.7;4.5;;;;;;;19.89;36.69727;936.891;;;;
2020/04/23 16:27:52;;;;;;;6.5;4.3;;;;;;;19.91;36.14941;936.8961;;;;
2020/04/23 16:30:27;;;;;;;8.3;4.9;;;;;;;19.86;36.57715;936.8984;;;;
2020/04/23 16:32:52;;;;;;;9.4;4.7;;;;;;;19.86;35.7373;936.875;;;;
2020/04/23 16:35:17;;;;;;;10.7;4.6;;;;;;;19.86;36.64746;936.9089;;;;
2020/04/23 16:37:47;;;;;;;8.2;4.6;;;;;;;19.76;36.14844;936.9438;;;;
2020/04/23 16:40:12;;;;;;;7.5;4.4;;;;;;;19.81;36.25781;936.9496;;;;
2020/04/23 16:42:43;;;;;;;8.8;4.3;;;;;;;19.82;36.27148;936.9222;;;;
2020/04/23 16:45:14;;;;;;;8.8;4.1;;;;;;;19.78;36.50098;936.9578;;;;
2020/04/23 16:47:39;;;;;;;7.4;4.6;;;;;;;19.82;36.55078;936.9518;;;;
2020/04/23 16:50:08;;;;;;;6.6;4.3;;;;;;;19.78;36.60547;936.9531;;;;
2020/04/23 16:52:33;;;;;;;6;4.3;;;;;;;19.72;36.61328;936.9247;;;;
2020/04/23 16:54:59;;;;;;;6.4;4;;;;;;;19.71;36.08789;936.9581;;;;
2020/04/23 16:57:24;;;;;;;8.5;4.5;;;;;;;19.74;35.79785;936.9308;;;;
2020/04/23 16:59:52;;;;;;;7.7;4.4;;;;;;;19.72;35.70313;936.933;;;;
2020/04/23 17:02:18;;;;;;;9.5;4.5;;;;;;;19.52;36.33887;936.9338;;;;
2020/04/23 17:04:45;;;;;;;10.1;4.6;;;;;;;19.58;35.86621;936.9412;;;;
2020/04/23 17:07:11;;;;;;;7.9;4.5;;;;;;;19.64;36.40723;936.9537;;;;
2020/04/23 17:09:41;;;;;;;8;4.3;;;;;;;19.64;36.02246;936.961;;;;
2020/04/23 17:12:06;;;;;;;8.9;4.2;;;;;;;19.63;36.15039;936.9983;;;;
2020/04/23 17:14:32;;;;;;;8.7;4.4;;;;;;;19.6;36.03125;936.9981;;;;
2020/04/23 17:17:46;;;;;;;8.2;4.6;;;;;;;19.5;35.75488;937.0287;;;;
2020/04/23 17:19:23;;;;;;;9.5;4.6;;;;;;;19.4;35.93359;937.0059;;;;
2020/04/23 17:21:48;;;;;;;6.2;4.4;;;;;;;19.4;35.57227;937.0851;;;;
2020/04/23 17:24:18;;;;;;;8.2;4.7;;;;;;;19.31;35.85645;937.0941;;;;
2020/04/23 17:26:47;;;;;;;8.7;4.8;;;;;;;19.19;36.10254;937.1309;;;;
2020/04/23 17:29:14;;;;;;;9.2;4.6;;;;;;;19.13;36.07422;937.1122;;;;
2020/04/23 17:31:39;;;;;;;9.3;4.9;;;;;;;19.15;36.55371;937.152;;;;
2020/04/23 17:34:04;;;;;;;8.2;4.3;;;;;;;19.1;37.02734;937.1216;;;;